createdAt,value
2023-04-29T00:00:01.836Z,12.26
2023-04-29T00:02:23.443Z,12.27
2023-04-29T00:04:45.151Z,12.26
2023-04-29T00:07:08.424Z,12.31
2023-04-29T00:09:29.861Z,12.19
2023-04-29T00:11:51.767Z,12.25
2023-04-29T00:14:13.766Z,12.18
2023-04-29T00:16:35.428Z,12.25
2023-04-29T00:18:56.916Z,12.18
2023-04-29T00:21:18.428Z,12.24
2023-04-29T00:23:39.891Z,12.23
2023-04-29T00:26:01.482Z,12.23
2023-04-29T00:28:22.958Z,12.19
2023-04-29T00:30:44.452Z,12.19
2023-04-29T00:33:05.897Z,12.27
2023-04-29T00:35:27.372Z,12.25
2023-04-29T00:37:48.871Z,12.19
2023-04-29T00:40:10.727Z,12.22
2023-04-29T00:42:33.930Z,12.29
2023-04-29T00:44:55.904Z,12.39
2023-04-29T00:47:17.437Z,12.51
2023-04-29T00:49:39.824Z,12.40
2023-04-29T00:52:02.077Z,12.54
2023-04-29T00:54:24.003Z,12.58
2023-04-29T00:56:46.458Z,12.47
2023-04-29T00:59:10.177Z,12.53
2023-04-29T01:01:32.574Z,12.49
2023-04-29T01:03:55.034Z,12.43
2023-04-29T01:06:38.353Z,12.52
2023-04-29T01:09:33.945Z,12.52
2023-04-29T01:12:08.335Z,12.61
2023-04-29T01:14:33.024Z,12.60
2023-04-29T01:17:00.382Z,12.52
2023-04-29T01:19:47.432Z,12.48
2023-04-29T01:22:08.867Z,12.45
2023-04-29T01:24:30.359Z,12.58
2023-04-29T01:27:02.617Z,12.46
2023-04-29T01:29:40.152Z,12.60
2023-04-29T01:32:09.101Z,12.37
2023-04-29T01:34:54.390Z,12.37
2023-04-29T01:37:22.429Z,12.46
2023-04-29T01:40:09.473Z,12.41
2023-04-29T01:42:44.278Z,12.51
2023-04-29T01:45:08.621Z,12.60
2023-04-29T01:47:30.821Z,12.50
2023-04-29T01:49:52.683Z,12.37
2023-04-29T01:52:14.350Z,12.36
2023-04-29T01:54:38.767Z,12.58
2023-04-29T01:57:00.665Z,12.44
2023-04-29T01:59:22.077Z,12.52
2023-04-29T02:01:43.894Z,12.60
2023-04-29T02:04:05.512Z,12.47
2023-04-29T02:06:28.096Z,12.55
2023-04-29T02:08:49.674Z,12.57
2023-04-29T02:11:11.099Z,12.63
2023-04-29T02:13:32.577Z,12.47
2023-04-29T02:15:54.133Z,12.32
2023-04-29T02:18:16.230Z,12.30
2023-04-29T02:20:37.716Z,12.22
2023-04-29T02:22:59.145Z,12.22
2023-04-29T02:25:21.031Z,12.16
2023-04-29T02:27:42.484Z,12.23
2023-04-29T02:30:04.878Z,12.28
2023-04-29T02:32:26.296Z,12.39
2023-04-29T02:34:47.788Z,12.39
2023-04-29T02:37:09.235Z,12.37
2023-04-29T02:39:30.834Z,12.25
2023-04-29T02:41:55.701Z,12.37
2023-04-29T02:44:17.202Z,12.42
2023-04-29T02:46:40.869Z,12.31
2023-04-29T02:49:02.804Z,12.36
2023-04-29T02:51:24.634Z,12.49
2023-04-29T02:53:46.100Z,12.44
2023-04-29T02:56:07.763Z,12.37
2023-04-29T02:58:29.215Z,12.39
2023-04-29T03:00:50.985Z,12.48
2023-04-29T03:03:12.734Z,12.56
2023-04-29T03:05:35.362Z,12.49
2023-04-29T03:07:56.824Z,12.41
2023-04-29T03:10:19.154Z,12.38
2023-04-29T03:12:40.937Z,12.41
2023-04-29T03:15:02.403Z,12.35
2023-04-29T03:17:24.032Z,12.35
2023-04-29T03:19:45.519Z,12.32
2023-04-29T03:22:08.314Z,12.46
2023-04-29T03:24:29.826Z,12.45
2023-04-29T03:26:51.252Z,12.46
2023-04-29T03:29:12.721Z,12.39
2023-04-29T03:31:34.619Z,12.43
2023-04-29T03:33:56.148Z,12.39
2023-04-29T03:36:17.657Z,12.46
2023-04-29T03:38:39.173Z,12.51
2023-04-29T03:41:00.872Z,12.39
2023-04-29T03:43:22.400Z,12.41
2023-04-29T03:45:43.835Z,12.51
2023-04-29T03:48:06.110Z,12.46
2023-04-29T03:50:27.631Z,12.49
2023-04-29T03:52:49.404Z,12.47
2023-04-29T03:55:11.689Z,12.61
2023-04-29T03:57:33.183Z,12.50
2023-04-29T03:59:54.795Z,12.46
2023-04-29T04:02:17.167Z,12.46
2023-04-29T04:04:39.032Z,12.40
2023-04-29T04:07:00.969Z,12.38
2023-04-29T04:09:22.407Z,12.46
2023-04-29T04:11:44.435Z,12.53
2023-04-29T04:14:06.541Z,12.51
2023-04-29T04:16:28.156Z,12.52
2023-04-29T04:18:49.612Z,12.49
2023-04-29T04:21:12.661Z,12.65
2023-04-29T04:23:34.429Z,12.56
2023-04-29T04:25:55.873Z,12.44
2023-04-29T04:28:17.362Z,12.25
2023-04-29T04:30:38.780Z,12.11
2023-04-29T04:33:00.307Z,12.10
2023-04-29T04:35:22.066Z,12.14
2023-04-29T04:37:43.503Z,12.04
2023-04-29T04:40:05.581Z,11.96
2023-04-29T04:42:27.033Z,12.07
2023-04-29T04:44:48.463Z,12.14
2023-04-29T04:47:11.581Z,12.24
2023-04-29T04:49:33.106Z,12.37
2023-04-29T04:51:54.573Z,12.51
2023-04-29T04:54:16.012Z,12.63
2023-04-29T04:56:37.910Z,12.67
2023-04-29T04:58:59.359Z,12.60
2023-04-29T05:01:21.377Z,12.61
2023-04-29T05:03:43.107Z,12.64
2023-04-29T05:06:04.729Z,12.74
2023-04-29T05:08:26.820Z,12.90
2023-04-29T05:10:48.456Z,12.93
2023-04-29T05:13:09.884Z,13.06
2023-04-29T05:15:31.413Z,13.00
2023-04-29T05:17:53.104Z,13.02
2023-04-29T05:20:14.702Z,13.05
2023-04-29T05:22:36.157Z,13.01
2023-04-29T05:25:02.940Z,13.08
2023-04-29T05:27:24.383Z,13.08
2023-04-29T05:29:45.821Z,13.09
2023-04-29T05:32:07.442Z,13.10
2023-04-29T05:34:28.906Z,13.19
2023-04-29T05:36:50.344Z,13.15
2023-04-29T05:39:11.876Z,13.21
2023-04-29T05:41:33.417Z,13.23
2023-04-29T05:43:54.934Z,13.31
2023-04-29T05:46:16.764Z,13.21
2023-04-29T05:48:38.899Z,13.18
2023-04-29T05:51:00.435Z,13.11
2023-04-29T05:53:21.921Z,13.10
2023-04-29T05:55:45.249Z,13.07
2023-04-29T05:58:06.724Z,13.12
2023-04-29T06:00:28.259Z,13.19
2023-04-29T06:02:58.029Z,13.36
2023-04-29T06:05:20.737Z,13.40
2023-04-29T06:07:43.975Z,13.45
2023-04-29T06:10:06.014Z,13.51
2023-04-29T06:12:27.494Z,13.65
2023-04-29T06:14:49.022Z,13.88
2023-04-29T06:17:12.371Z,14.12
2023-04-29T06:19:34.150Z,14.39
2023-04-29T06:21:55.741Z,14.53
2023-04-29T06:24:17.229Z,14.84
2023-04-29T06:26:38.660Z,14.85
2023-04-29T06:29:00.149Z,14.66
2023-04-29T06:31:23.048Z,14.57
2023-04-29T06:33:44.707Z,14.40
2023-04-29T06:36:06.358Z,14.47
2023-04-29T06:38:27.763Z,14.28
2023-04-29T06:40:49.260Z,14.13
2023-04-29T06:43:10.697Z,13.93
2023-04-29T06:45:32.294Z,13.80
2023-04-29T06:47:53.910Z,13.76
2023-04-29T06:50:15.394Z,13.80
2023-04-29T06:52:36.864Z,13.77
2023-04-29T06:54:58.692Z,13.92
2023-04-29T06:57:20.811Z,13.87
2023-04-29T06:59:42.377Z,13.90
2023-04-29T07:02:03.818Z,14.07
2023-04-29T07:04:25.321Z,14.17
2023-04-29T07:06:47.232Z,14.45
2023-04-29T07:09:09.156Z,14.23
2023-04-29T07:11:30.751Z,14.09
2023-04-29T07:13:55.428Z,13.98
2023-04-29T07:16:22.036Z,14.01
2023-04-29T07:18:43.965Z,13.98
2023-04-29T07:21:05.408Z,13.89
2023-04-29T07:23:26.973Z,13.88
2023-04-29T07:25:48.440Z,13.97
2023-04-29T07:28:09.952Z,13.99
2023-04-29T07:30:31.543Z,13.83
2023-04-29T07:32:52.974Z,13.76
2023-04-29T07:35:14.827Z,13.61
2023-04-29T07:37:36.350Z,13.71
2023-04-29T07:39:57.855Z,13.82
2023-04-29T07:42:19.278Z,13.98
2023-04-29T07:44:41.035Z,13.90
2023-04-29T07:47:02.480Z,14.00
2023-04-29T07:49:23.935Z,14.15
2023-04-29T07:51:45.445Z,14.37
2023-04-29T07:54:07.264Z,14.36
2023-04-29T07:56:28.694Z,14.39
2023-04-29T07:58:50.187Z,14.41
2023-04-29T08:01:12.273Z,14.44
2023-04-29T08:03:34.130Z,14.70
2023-04-29T08:06:00.630Z,14.61
2023-04-29T08:08:22.075Z,14.60
2023-04-29T08:10:44.052Z,14.82
2023-04-29T08:13:05.496Z,14.88
2023-04-29T08:15:27.004Z,15.02
2023-04-29T08:17:48.472Z,15.21
2023-04-29T08:20:10.346Z,15.26
2023-04-29T08:22:31.839Z,15.12
2023-04-29T08:24:53.427Z,15.13
2023-04-29T08:27:15.518Z,15.09
2023-04-29T08:29:37.341Z,14.93
2023-04-29T08:31:58.928Z,15.03
2023-04-29T08:34:20.464Z,14.93
2023-04-29T08:36:41.985Z,14.68
2023-04-29T08:39:03.491Z,14.66
2023-04-29T08:41:25.682Z,14.96
2023-04-29T08:43:47.199Z,15.13
2023-04-29T08:46:09.792Z,14.98
2023-04-29T08:48:31.747Z,15.27
2023-04-29T08:50:53.269Z,15.46
2023-04-29T08:53:15.282Z,15.56
2023-04-29T08:55:41.643Z,15.87
2023-04-29T08:58:03.625Z,16.26
2023-04-29T09:00:25.231Z,16.35
2023-04-29T09:02:51.599Z,16.34
2023-04-29T09:05:13.198Z,16.07
2023-04-29T09:07:35.841Z,15.86
2023-04-29T09:09:59.062Z,15.65
2023-04-29T09:12:21.098Z,15.49
2023-04-29T09:14:42.635Z,15.52
2023-04-29T09:17:04.125Z,15.34
2023-04-29T09:19:31.947Z,15.13
2023-04-29T09:21:57.303Z,15.08
2023-04-29T09:24:26.438Z,14.88
2023-04-29T09:26:48.847Z,14.88
2023-04-29T09:29:18.362Z,14.80
2023-04-29T09:31:40.605Z,14.76
2023-04-29T09:34:02.241Z,14.67
2023-04-29T09:36:38.677Z,14.71
2023-04-29T09:39:00.081Z,14.64
2023-04-29T09:41:22.090Z,14.66
2023-04-29T09:43:43.527Z,14.79
2023-04-29T09:46:05.052Z,14.91
2023-04-29T09:48:32.501Z,15.34
2023-04-29T09:51:02.235Z,15.89
2023-04-29T09:53:31.628Z,15.87
2023-04-29T09:55:53.147Z,16.12
2023-04-29T09:58:37.522Z,16.26
2023-04-29T10:01:03.180Z,16.48
2023-04-29T10:03:25.915Z,16.50
2023-04-29T10:05:48.103Z,16.65
2023-04-29T10:08:09.878Z,16.81
2023-04-29T10:10:31.421Z,17.03
2023-04-29T10:12:54.445Z,17.14
2023-04-29T10:15:15.854Z,17.28
2023-04-29T10:17:46.030Z,17.03
2023-04-29T10:20:09.305Z,17.18
2023-04-29T10:22:50.114Z,17.42
2023-04-29T10:25:12.421Z,17.30
2023-04-29T10:27:34.970Z,17.47
2023-04-29T10:29:58.479Z,17.42
2023-04-29T10:32:21.873Z,17.23
2023-04-29T10:34:43.854Z,16.98
2023-04-29T10:37:11.479Z,17.13
2023-04-29T10:39:42.815Z,17.52
2023-04-29T10:42:14.468Z,17.81
2023-04-29T10:45:14.383Z,17.84
2023-04-29T10:47:35.888Z,17.30
2023-04-29T10:50:04.795Z,17.32
2023-04-29T10:52:27.813Z,17.46
2023-04-29T10:55:05.286Z,17.51
2023-04-29T10:57:26.845Z,17.40
2023-04-29T10:59:48.356Z,16.95
2023-04-29T11:02:12.937Z,16.84
2023-04-29T11:04:34.410Z,16.70
2023-04-29T11:06:59.052Z,16.59
2023-04-29T11:09:24.543Z,16.76
2023-04-29T11:11:54.399Z,16.74
2023-04-29T11:14:22.650Z,16.75
2023-04-29T11:16:49.581Z,16.66
2023-04-29T11:19:18.176Z,16.82
2023-04-29T11:21:39.637Z,16.73
2023-04-29T11:24:02.325Z,16.74
2023-04-29T11:26:24.329Z,16.80
2023-04-29T11:28:45.980Z,16.93
2023-04-29T11:31:07.590Z,17.12
2023-04-29T11:33:32.542Z,17.01
2023-04-29T11:35:54.644Z,16.78
2023-04-29T11:38:16.203Z,16.58
2023-04-29T11:40:42.819Z,16.43
2023-04-29T11:43:06.073Z,16.05
2023-04-29T11:45:28.137Z,15.91
2023-04-29T11:47:49.679Z,15.90
2023-04-29T11:50:11.788Z,15.85
2023-04-29T11:52:33.683Z,15.78
2023-04-29T11:54:55.423Z,15.57
2023-04-29T11:57:17.346Z,15.39
2023-04-29T11:59:39.059Z,15.45
2023-04-29T12:02:01.018Z,15.17
2023-04-29T12:04:22.906Z,14.98
2023-04-29T12:06:44.549Z,14.86
2023-04-29T12:09:06.174Z,14.73
2023-04-29T12:11:28.991Z,14.79
2023-04-29T12:13:50.498Z,14.82
2023-04-29T12:16:12.601Z,14.74
2023-04-29T12:18:35.011Z,14.76
2023-04-29T12:20:57.002Z,14.64
2023-04-29T12:23:24.084Z,14.55
2023-04-29T12:25:53.842Z,14.68
2023-04-29T12:28:15.727Z,14.43
2023-04-29T12:30:37.705Z,14.44
2023-04-29T12:32:59.444Z,14.53
2023-04-29T12:35:21.918Z,14.53
2023-04-29T12:37:43.427Z,14.38
2023-04-29T12:40:05.494Z,14.36
2023-04-29T12:42:33.188Z,14.41
2023-04-29T12:44:54.807Z,14.47
2023-04-29T12:47:16.968Z,14.55
2023-04-29T12:49:42.173Z,14.48
2023-04-29T12:52:04.298Z,14.43
2023-04-29T12:54:25.884Z,14.21
2023-04-29T12:56:48.552Z,14.29
2023-04-29T12:59:12.273Z,14.27
2023-04-29T13:01:34.338Z,14.11
2023-04-29T13:03:55.968Z,14.21
2023-04-29T13:06:18.069Z,14.37
2023-04-29T13:08:39.486Z,14.28
2023-04-29T13:11:01.134Z,14.37
2023-04-29T13:13:22.558Z,14.44
2023-04-29T13:15:45.115Z,14.46
2023-04-29T13:18:06.795Z,14.54
2023-04-29T13:20:28.639Z,14.70
2023-04-29T13:22:50.597Z,14.69
2023-04-29T13:25:12.396Z,14.65
2023-04-29T13:27:34.310Z,14.62
2023-04-29T13:29:56.800Z,14.71
2023-04-29T13:32:18.906Z,14.89
2023-04-29T13:34:43.374Z,14.98
2023-04-29T13:37:04.885Z,15.05
2023-04-29T13:39:26.326Z,15.23
2023-04-29T13:41:47.762Z,15.23
2023-04-29T13:44:20.847Z,15.32
2023-04-29T13:46:52.199Z,15.53
2023-04-29T13:49:35.298Z,15.79
2023-04-29T13:52:47.394Z,15.77
2023-04-29T13:54:59.240Z,16.14
2023-04-29T13:59:56.404Z,16.40
2023-04-29T14:04:42.411Z,16.50
2023-04-29T14:07:03.989Z,16.56
2023-04-29T14:09:26.342Z,16.41
2023-04-29T14:11:49.065Z,16.15
2023-04-29T14:14:10.519Z,16.05
2023-04-29T14:16:32.284Z,16.04
2023-04-29T14:18:54.204Z,16.00
2023-04-29T14:21:16.256Z,16.00
2023-04-29T14:23:37.787Z,15.95
2023-04-29T14:26:16.636Z,15.95
2023-04-29T14:28:40.820Z,15.96
2023-04-29T14:31:02.331Z,16.10
2023-04-29T14:33:24.011Z,16.10
2023-04-29T14:35:46.314Z,16.07
2023-04-29T14:38:07.977Z,16.17
2023-04-29T14:40:29.542Z,16.33
2023-04-29T14:42:51.023Z,16.35
2023-04-29T14:45:12.648Z,16.24
2023-04-29T14:47:34.129Z,16.25
2023-04-29T14:49:56.419Z,16.09
2023-04-29T14:52:17.917Z,15.94
2023-04-29T14:54:39.419Z,15.91
2023-04-29T14:57:00.842Z,15.65
2023-04-29T14:59:22.358Z,15.68
2023-04-29T15:01:44.097Z,15.89
2023-04-29T15:04:05.913Z,15.87
2023-04-29T15:06:27.802Z,15.93
2023-04-29T15:08:49.375Z,15.91
2023-04-29T15:11:10.970Z,16.00
2023-04-29T15:13:32.530Z,15.82
2023-04-29T15:15:54.157Z,15.93
2023-04-29T15:18:15.650Z,16.07
2023-04-29T15:20:37.595Z,16.04
2023-04-29T15:22:59.078Z,16.15
2023-04-29T15:25:21.515Z,15.91
2023-04-29T15:27:43.465Z,15.70
2023-04-29T15:30:06.693Z,15.60
2023-04-29T15:32:32.223Z,15.58
2023-04-29T15:34:55.510Z,15.47
2023-04-29T15:37:17.117Z,15.32
2023-04-29T15:39:38.582Z,15.27
2023-04-29T15:42:00.221Z,15.11
2023-04-29T15:44:21.663Z,15.00
2023-04-29T15:46:43.144Z,14.99
2023-04-29T15:49:06.578Z,14.98
2023-04-29T15:51:28.051Z,14.88
2023-04-29T15:53:50.973Z,14.88
2023-04-29T15:56:13.347Z,14.89
2023-04-29T15:58:34.948Z,14.88
2023-04-29T16:00:56.449Z,14.69
2023-04-29T16:03:18.109Z,14.79
2023-04-29T16:05:39.908Z,14.84
2023-04-29T16:08:01.366Z,14.58
2023-04-29T16:10:23.533Z,14.45
2023-04-29T16:12:45.101Z,14.24
2023-04-29T16:15:08.032Z,14.19
2023-04-29T16:17:31.274Z,14.20
2023-04-29T16:19:52.997Z,14.15
2023-04-29T16:22:14.641Z,14.24
2023-04-29T16:24:36.121Z,14.21
2023-04-29T16:26:58.945Z,14.17
2023-04-29T16:29:20.529Z,14.28
2023-04-29T16:31:42.022Z,14.34
2023-04-29T16:34:03.524Z,14.36
2023-04-29T16:36:25.468Z,14.23
2023-04-29T16:38:46.963Z,14.22
2023-04-29T16:41:08.418Z,14.25
2023-04-29T16:43:29.923Z,14.26
2023-04-29T16:45:52.096Z,14.33
2023-04-29T16:48:13.729Z,14.26
2023-04-29T16:50:38.668Z,14.26
2023-04-29T16:53:00.095Z,14.26
2023-04-29T16:55:21.537Z,14.13
2023-04-29T16:57:42.997Z,14.14
2023-04-29T17:00:05.390Z,14.03
2023-04-29T17:02:27.947Z,14.05
2023-04-29T17:04:49.628Z,14.08
2023-04-29T17:07:11.094Z,14.04
2023-04-29T17:09:32.631Z,13.97
2023-04-29T17:11:54.172Z,13.92
2023-04-29T17:14:15.658Z,13.97
2023-04-29T17:16:37.394Z,13.89
2023-04-29T17:18:59.388Z,13.88
2023-04-29T17:21:24.690Z,13.94
2023-04-29T17:23:46.325Z,14.10
2023-04-29T17:26:07.817Z,14.15
2023-04-29T17:28:29.428Z,13.97
2023-04-29T17:30:51.843Z,14.08
2023-04-29T17:33:14.144Z,14.10
2023-04-29T17:35:35.716Z,14.16
2023-04-29T17:37:57.289Z,14.20
2023-04-29T17:40:18.861Z,14.17
2023-04-29T17:42:40.609Z,14.16
2023-04-29T17:45:02.166Z,14.17
2023-04-29T17:47:23.685Z,14.27
2023-04-29T17:49:45.306Z,14.25
2023-04-29T17:52:06.802Z,14.37
2023-04-29T17:54:29.228Z,14.42
2023-04-29T17:56:50.794Z,14.49
2023-04-29T17:59:12.429Z,14.47
2023-04-29T18:01:34.911Z,14.49
2023-04-29T18:03:56.456Z,14.50
2023-04-29T18:06:18.381Z,14.53
2023-04-29T18:08:39.922Z,14.45
2023-04-29T18:11:01.371Z,14.50
2023-04-29T18:13:25.173Z,14.56
2023-04-29T18:15:48.762Z,14.51
2023-04-29T18:18:10.283Z,14.45
2023-04-29T18:20:31.896Z,14.46
2023-04-29T18:22:53.346Z,14.45
2023-04-29T18:25:14.964Z,14.49
2023-04-29T18:27:36.633Z,14.49
2023-04-29T18:29:58.116Z,14.47
2023-04-29T18:32:19.591Z,14.45
2023-04-29T18:34:41.047Z,14.42
2023-04-29T18:37:02.495Z,14.45
2023-04-29T18:39:23.946Z,14.44
2023-04-29T18:41:45.537Z,14.43
2023-04-29T18:44:06.942Z,14.42
2023-04-29T18:46:30.515Z,14.42
2023-04-29T18:48:52.087Z,14.38
2023-04-29T18:51:13.611Z,14.38
2023-04-29T18:53:35.214Z,14.34
2023-04-29T18:55:56.830Z,14.30
2023-04-29T18:58:18.289Z,14.29
2023-04-29T19:00:40.514Z,14.26
2023-04-29T19:03:02.065Z,14.18
2023-04-29T19:05:23.827Z,14.15
2023-04-29T19:07:45.424Z,14.14
2023-04-29T19:10:07.772Z,14.13
2023-04-29T19:12:29.207Z,14.13
2023-04-29T19:14:50.689Z,14.11
2023-04-29T19:17:12.134Z,14.08
2023-04-29T19:19:33.860Z,14.01
2023-04-29T19:21:56.381Z,13.98
2023-04-29T19:24:17.915Z,13.96
2023-04-29T19:26:40.337Z,13.90
2023-04-29T19:29:02.053Z,13.90
2023-04-29T19:31:23.552Z,13.86
2023-04-29T19:33:45.169Z,13.80
2023-04-29T19:36:07.412Z,13.83
2023-04-29T19:38:28.859Z,13.74
2023-04-29T19:40:50.399Z,13.66
2023-04-29T19:43:13.309Z,13.72
2023-04-29T19:45:36.147Z,13.67
2023-04-29T19:48:01.891Z,13.63
2023-04-29T19:50:23.569Z,13.51
2023-04-29T19:52:45.092Z,13.50
2023-04-29T19:55:09.017Z,13.52
2023-04-29T19:57:30.586Z,13.48
2023-04-29T19:59:52.387Z,13.55
2023-04-29T20:02:14.165Z,13.48
2023-04-29T20:04:35.768Z,13.51
2023-04-29T20:06:57.206Z,13.44
2023-04-29T20:09:18.683Z,13.38
2023-04-29T20:11:40.134Z,13.36
2023-04-29T20:14:01.577Z,13.21
2023-04-29T20:16:23.643Z,13.25
2023-04-29T20:18:45.644Z,13.24
2023-04-29T20:21:07.092Z,13.14
2023-04-29T20:23:28.663Z,13.17
2023-04-29T20:25:50.781Z,13.17
2023-04-29T20:28:12.339Z,13.19
2023-04-29T20:30:33.793Z,13.19
2023-04-29T20:32:55.303Z,13.22
2023-04-29T20:35:17.696Z,13.22
2023-04-29T20:37:39.183Z,13.08
2023-04-29T20:40:00.675Z,13.14
2023-04-29T20:42:22.262Z,13.08
2023-04-29T20:44:44.057Z,13.04
2023-04-29T20:47:06.007Z,13.12
2023-04-29T20:49:27.498Z,13.11
2023-04-29T20:51:49.382Z,13.13
2023-04-29T20:54:11.140Z,13.14
2023-04-29T20:56:32.596Z,13.11
2023-04-29T20:58:54.109Z,13.15
2023-04-29T21:01:15.652Z,13.09
2023-04-29T21:03:37.150Z,13.07
2023-04-29T21:05:58.681Z,13.10
2023-04-29T21:08:20.196Z,13.10
2023-04-29T21:10:41.611Z,13.08
2023-04-29T21:13:03.636Z,13.01
2023-04-29T21:15:26.796Z,13.03
2023-04-29T21:17:48.448Z,13.02
2023-04-29T21:20:10.265Z,13.00
2023-04-29T21:22:31.699Z,13.00
2023-04-29T21:24:53.163Z,12.91
2023-04-29T21:27:14.667Z,12.91
2023-04-29T21:29:40.744Z,12.91
2023-04-29T21:32:02.426Z,12.89
2023-04-29T21:34:23.949Z,12.88
2023-04-29T21:36:45.386Z,12.88
2023-04-29T21:39:06.910Z,12.86
2023-04-29T21:41:30.894Z,12.88
2023-04-29T21:43:53.229Z,12.81
2023-04-29T21:46:15.772Z,12.77
2023-04-29T21:48:37.335Z,12.68
2023-04-29T21:50:59.945Z,12.66
2023-04-29T21:53:21.385Z,12.69
2023-04-29T21:55:42.867Z,12.73
2023-04-29T21:58:04.707Z,12.75
2023-04-29T22:00:36.640Z,12.81
2023-04-29T22:02:59.269Z,12.77
2023-04-29T22:05:20.766Z,12.78
2023-04-29T22:07:42.816Z,12.71
2023-04-29T22:10:04.586Z,12.71
2023-04-29T22:12:26.471Z,12.69
2023-04-29T22:14:47.971Z,12.62
2023-04-29T22:17:09.436Z,12.62
2023-04-29T22:19:30.894Z,12.56
2023-04-29T22:21:52.315Z,12.48
2023-04-29T22:24:13.794Z,12.39
2023-04-29T22:26:35.585Z,12.41
2023-04-29T22:28:57.367Z,12.35
2023-04-29T22:31:18.914Z,12.31
2023-04-29T22:33:40.482Z,12.22
2023-04-29T22:36:02.347Z,12.14
2023-04-29T22:38:23.906Z,11.93
2023-04-29T22:40:52.062Z,11.78
2023-04-29T22:43:13.633Z,11.75
2023-04-29T22:45:35.132Z,11.71
2023-04-29T22:47:56.613Z,11.70
2023-04-29T22:50:18.272Z,11.63
2023-04-29T22:52:40.065Z,11.34
2023-04-29T22:55:01.998Z,11.24
2023-04-29T22:57:23.517Z,11.28
2023-04-29T22:59:45.114Z,11.24
2023-04-29T23:02:06.583Z,11.20
2023-04-29T23:04:28.108Z,11.03
2023-04-29T23:06:49.665Z,10.99
2023-04-29T23:09:11.729Z,10.99
2023-04-29T23:11:33.211Z,10.99
2023-04-29T23:13:54.818Z,10.77
2023-04-29T23:16:16.493Z,10.69
2023-04-29T23:18:38.041Z,10.72
2023-04-29T23:20:59.463Z,10.45
2023-04-29T23:23:20.943Z,10.47
2023-04-29T23:25:42.818Z,10.35
2023-04-29T23:28:04.355Z,10.33
2023-04-29T23:30:26.207Z,10.18
2023-04-29T23:32:47.724Z,10.25
2023-04-29T23:35:11.462Z,10.08
2023-04-29T23:37:33.027Z,10.09
2023-04-29T23:39:55.684Z,10.05
2023-04-29T23:42:18.420Z,10.07
2023-04-29T23:44:39.938Z,10.00
2023-04-29T23:47:01.371Z,9.99
2023-04-29T23:49:22.829Z,9.93
2023-04-29T23:51:44.324Z,9.71
2023-04-29T23:54:06.026Z,9.61
2023-04-29T23:56:29.301Z,9.36
2023-04-29T23:58:50.802Z,9.44
